Time,TemperatureF,DewpointF,PressureIn,WindDirection,WindDirectionDegrees,WindSpeedMPH,WindSpeedGustMPH,Humidity,HourlyPrecipIn,Conditions,Clouds,dailyrainin,SoftwareType,DateUTC
2013-03-22 00:06:00,27.4,13.0,30.33,East,100,0.0,0.0,55,0.00,,,0.00,weatherlink.com 1.10,2013-03-22 04:06:00,
2013-03-22 00:21:00,27.6,13.0,30.34,SW,231,0.0,1.0,55,0.00,,,0.00,weatherlink.com 1.10,2013-03-22 04:21:00,
2013-03-22 00:36:00,27.5,13.0,30.33,SW,229,0.0,0.0,55,0.00,,,0.00,weatherlink.com 1.10,2013-03-22 04:36:00,
2013-03-22 00:51:00,27.2,14.0,30.33,SW,226,0.0,0.0,57,0.00,,,0.00,weatherlink.com 1.10,2013-03-22 04:51:00,
2013-03-22 01:06:00,27.0,13.0,30.33,SW,226,0.0,0.0,57,0.00,,,0.00,weatherlink.com 1.10,2013-03-22 05:06:00,
2013-03-22 01:21:00,26.8,13.0,30.33,SW,226,0.0,0.0,57,0.00,,,0.00,weatherlink.com 1.10,2013-03-22 05:21:00,
2013-03-22 01:36:00,26.9,13.0,30.33,SW,226,0.0,0.0,56,0.00,,,0.00,weatherlink.com 1.10,2013-03-22 05:36:00,
2013-03-22 02:06:00,26.6,13.0,30.33,SW,226,0.0,0.0,57,0.00,,,0.00,weatherlink.com 1.10,2013-03-22 06:06:00,
2013-03-22 02:21:00,26.8,13.0,30.33,SW,226,0.0,0.0,57,0.00,,,0.00,weatherlink.com 1.10,2013-03-22 06:21:00,
2013-03-22 02:36:00,26.6,13.0,30.34,SW,226,0.0,0.0,57,0.00,,,0.00,weatherlink.com 1.10,2013-03-22 06:36:00,
2013-03-22 02:51:00,26.6,13.0,30.35,SW,226,0.0,0.0,58,0.00,,,0.00,weatherlink.com 1.10,2013-03-22 06:51:00,
2013-03-22 03:06:00,26.5,13.0,30.35,SW,226,0.0,0.0,58,0.00,,,0.00,weatherlink.com 1.10,2013-03-22 07:06:00,
2013-03-22 03:21:00,26.5,13.0,30.36,SW,226,0.0,0.0,57,0.00,,,0.00,weatherlink.com 1.10,2013-03-22 07:21:00,
2013-03-22 03:36:00,26.2,14.0,30.36,SW,226,0.0,0.0,59,0.00,,,0.00,weatherlink.com 1.10,2013-03-22 07:36:00,
2013-03-22 03:51:00,26.1,14.0,30.36,SW,226,0.0,0.0,60,0.00,,,0.00,weatherlink.com 1.10,2013-03-22 07:51:00,
2013-03-22 04:06:00,25.9,13.0,30.35,SW,226,0.0,0.0,59,0.00,,,0.00,weatherlink.com 1.10,2013-03-22 08:06:00,
2013-03-22 04:21:00,25.8,14.0,30.35,East,86,0.0,1.0,62,0.00,,,0.00,weatherlink.com 1.10,2013-03-22 08:21:00,
2013-03-22 04:36:00,25.7,13.0,30.35,NE,56,0.0,2.0,60,0.00,,,0.00,weatherlink.com 1.10,2013-03-22 08:36:00,
2013-03-22 04:51:00,25.9,13.0,30.36,NE,56,0.0,0.0,59,0.00,,,0.00,weatherlink.com 1.10,2013-03-22 08:51:00,
2013-03-22 05:07:00,26.2,14.0,30.36,NE,56,0.0,0.0,59,0.00,,,0.00,weatherlink.com 1.10,2013-03-22 09:07:00,
2013-03-22 05:22:00,26.2,14.0,30.37,NE,56,2.0,2.0,59,0.00,,,0.00,weatherlink.com 1.10,2013-03-22 09:22:00,
2013-03-22 05:37:00,26.4,14.0,30.37,SW,235,2.0,3.0,60,0.00,,,0.00,weatherlink.com 1.10,2013-03-22 09:37:00,
2013-03-22 05:52:00,26.6,14.0,30.37,SW,233,0.0,1.0,59,0.00,,,0.00,weatherlink.com 1.10,2013-03-22 09:52:00,
2013-03-22 06:07:00,27.0,16.0,30.38,SW,233,0.0,0.0,63,0.00,,,0.00,weatherlink.com 1.10,2013-03-22 10:07:00,
2013-03-22 06:22:00,27.0,16.0,30.39,East,80,0.0,1.0,63,0.00,,,0.00,weatherlink.com 1.10,2013-03-22 10:22:00,
2013-03-22 06:37:00,27.1,16.0,30.38,ENE,78,1.0,2.0,64,0.00,,,0.00,weatherlink.com 1.10,2013-03-22 10:37:00,
2013-03-22 06:52:00,27.8,15.0,30.38,ENE,78,0.0,0.0,58,0.00,,,0.00,weatherlink.com 1.10,2013-03-22 10:52:00,
2013-03-22 07:07:00,28.1,17.0,30.39,ENE,77,0.0,0.0,64,0.00,,,0.00,weatherlink.com 1.10,2013-03-22 11:07:00,
2013-03-22 07:22:00,28.0,17.0,30.38,ENE,77,0.0,0.0,64,0.00,,,0.00,weatherlink.com 1.10,2013-03-22 11:22:00,
2013-03-22 07:37:00,27.9,17.0,30.39,WSW,248,0.0,0.0,63,0.00,,,0.00,weatherlink.com 1.10,2013-03-22 11:37:00,
2013-03-22 07:52:00,27.7,16.0,30.38,SW,228,3.0,3.0,63,0.00,,,0.00,weatherlink.com 1.10,2013-03-22 11:52:00,
2013-03-22 08:07:00,27.7,16.0,30.39,SW,236,3.0,3.0,63,0.00,,,0.00,weatherlink.com 1.10,2013-03-22 12:07:00,
2013-03-22 08:22:00,27.8,17.0,30.39,SW,229,2.0,3.0,63,0.00,,,0.00,weatherlink.com 1.10,2013-03-22 12:22:00,
2013-03-22 08:37:00,27.9,16.0,30.39,SW,236,0.0,2.0,62,0.00,,,0.00,weatherlink.com 1.10,2013-03-22 12:37:00,
2013-03-22 08:52:00,28.4,17.0,30.40,SW,236,0.0,0.0,62,0.00,,,0.00,weatherlink.com 1.10,2013-03-22 12:52:00,
2013-03-22 09:07:00,29.2,16.0,30.41,SW,236,0.0,0.0,59,0.00,,,0.00,weatherlink.com 1.10,2013-03-22 13:07:00,
2013-03-22 09:22:00,29.7,16.0,30.41,SW,236,0.0,0.0,57,0.00,,,0.00,weatherlink.com 1.10,2013-03-22 13:22:00,
2013-03-22 09:37:00,30.2,18.0,30.41,SW,236,0.0,0.0,62,0.00,,,0.00,weatherlink.com 1.10,2013-03-22 13:37:00,
2013-03-22 09:52:00,30.6,18.0,30.42,NNE,27,0.0,0.0,61,0.00,,,0.00,weatherlink.com 1.10,2013-03-22 13:52:00,
2013-03-22 10:07:00,31.1,19.0,30.42,NNE,27,0.0,0.0,60,0.00,,,0.00,weatherlink.com 1.10,2013-03-22 14:07:00,
2013-03-22 10:22:00,32.6,20.0,30.42,North,10,0.0,0.0,60,0.00,,,0.00,weatherlink.com 1.10,2013-03-22 14:22:00,
2013-03-22 10:37:00,34.8,19.0,30.42,WSW,258,0.0,0.0,53,0.00,,,0.00,weatherlink.com 1.10,2013-03-22 14:37:00,
2013-03-22 10:52:00,36.5,20.0,30.41,West,260,0.0,0.0,51,0.00,,,0.00,weatherlink.com 1.10,2013-03-22 14:52:00,
2013-03-22 11:07:00,38.7,18.0,30.40,WSW,248,0.0,0.0,43,0.00,,,0.00,weatherlink.com 1.10,2013-03-22 15:07:00,
2013-03-22 11:22:00,39.3,17.0,30.40,WSW,257,0.0,0.0,41,0.00,,,0.00,weatherlink.com 1.10,2013-03-22 15:22:00,
2013-03-22 11:37:00,38.5,16.0,30.40,West,260,1.0,2.0,40,0.00,,,0.00,weatherlink.com 1.10,2013-03-22 15:37:00,
2013-03-22 11:52:00,37.2,15.0,30.41,SW,236,3.0,4.0,41,0.00,,,0.00,weatherlink.com 1.10,2013-03-22 15:52:00,
2013-03-22 12:07:00,36.6,15.0,30.41,WSW,246,5.0,6.0,42,0.00,,,0.00,weatherlink.com 1.10,2013-03-22 16:07:00,
2013-03-22 12:22:00,36.6,16.0,30.40,WSW,248,0.0,4.0,44,0.00,,,0.00,weatherlink.com 1.10,2013-03-22 16:22:00,
2013-03-22 12:37:00,37.7,18.0,30.41,WSW,252,0.0,4.0,45,0.00,,,0.00,weatherlink.com 1.10,2013-03-22 16:37:00,
2013-03-22 12:52:00,39.0,15.0,30.40,WSW,242,0.0,4.0,38,0.00,,,0.00,weatherlink.com 1.10,2013-03-22 16:52:00,
2013-03-22 13:07:00,39.5,15.0,30.41,WSW,249,4.0,7.0,37,0.00,,,0.00,weatherlink.com 1.10,2013-03-22 17:07:00,
2013-03-22 13:22:00,39.1,13.0,30.41,SW,215,0.0,4.0,35,0.00,,,0.00,weatherlink.com 1.10,2013-03-22 17:22:00,
2013-03-22 13:37:00,39.7,15.0,30.41,West,260,3.0,3.0,36,0.00,,,0.00,weatherlink.com 1.10,2013-03-22 17:37:00,
2013-03-22 13:53:00,40.6,15.0,30.40,WSW,253,0.0,4.0,36,0.00,,,0.00,weatherlink.com 1.10,2013-03-22 17:53:00,
2013-03-22 14:08:00,40.8,17.0,30.40,West,260,1.0,6.0,39,0.00,,,0.00,weatherlink.com 1.10,2013-03-22 18:08:00,
2013-03-22 14:23:00,40.3,18.0,30.40,WSW,240,2.0,4.0,41,0.00,,,0.00,weatherlink.com 1.10,2013-03-22 18:23:00,
2013-03-22 14:38:00,40.7,19.0,30.40,SW,226,0.0,4.0,41,0.00,,,0.00,weatherlink.com 1.10,2013-03-22 18:38:00,
2013-03-22 14:53:00,41.1,20.0,30.40,WSW,258,2.0,3.0,43,0.00,,,0.00,weatherlink.com 1.10,2013-03-22 18:53:00,
2013-03-22 15:08:00,41.9,21.0,30.39,SW,232,0.0,3.0,44,0.00,,,0.00,weatherlink.com 1.10,2013-03-22 19:08:00,
2013-03-22 15:23:00,42.8,21.0,30.39,WSW,239,0.0,1.0,42,0.00,,,0.00,weatherlink.com 1.10,2013-03-22 19:23:00,
2013-03-22 15:38:00,43.3,21.0,30.38,SSW,212,0.0,0.0,42,0.00,,,0.00,weatherlink.com 1.10,2013-03-22 19:38:00,
2013-03-22 15:53:00,43.1,25.0,30.37,WSW,256,0.0,0.0,49,0.00,,,0.00,weatherlink.com 1.10,2013-03-22 19:53:00,
2013-03-22 16:08:00,43.5,25.0,30.37,WSW,253,0.0,1.0,49,0.00,,,0.00,weatherlink.com 1.10,2013-03-22 20:08:00,
2013-03-22 16:23:00,44.0,24.0,30.37,WSW,253,0.0,1.0,46,0.00,,,0.00,weatherlink.com 1.10,2013-03-22 20:23:00,
2013-03-22 16:38:00,44.7,25.0,30.36,WSW,250,0.0,0.0,47,0.00,,,0.00,weatherlink.com 1.10,2013-03-22 20:38:00,
2013-03-22 16:53:00,45.2,26.0,30.36,WSW,250,0.0,1.0,48,0.00,,,0.00,weatherlink.com 1.10,2013-03-22 20:53:00,
2013-03-22 17:08:00,44.5,26.0,30.36,WSW,252,0.0,0.0,49,0.00,,,0.00,weatherlink.com 1.10,2013-03-22 21:08:00,
2013-03-22 17:24:00,43.4,26.0,30.36,WSW,250,1.0,1.0,50,0.00,,,0.00,weatherlink.com 1.10,2013-03-22 21:24:00,
2013-03-22 17:38:00,43.1,25.0,30.36,WSW,252,0.0,1.0,50,0.00,,,0.00,weatherlink.com 1.10,2013-03-22 21:38:00,
2013-03-22 17:53:00,43.1,26.0,30.36,WSW,252,0.0,1.0,52,0.00,,,0.00,weatherlink.com 1.10,2013-03-22 21:53:00,
2013-03-22 18:08:00,43.1,26.0,30.36,WSW,252,0.0,1.0,52,0.00,,,0.00,weatherlink.com 1.10,2013-03-22 22:08:00,
2013-03-22 18:23:00,42.9,27.0,30.36,West,267,0.0,1.0,53,0.00,,,0.00,weatherlink.com 1.10,2013-03-22 22:23:00,
2013-03-22 18:38:00,42.7,27.0,30.36,North,351,0.0,1.0,54,0.00,,,0.00,weatherlink.com 1.10,2013-03-22 22:38:00,
2013-03-22 18:53:00,42.6,27.0,30.37,North,350,0.0,1.0,55,0.00,,,0.00,weatherlink.com 1.10,2013-03-22 22:53:00,
2013-03-22 19:08:00,42.1,27.0,30.37,North,9,0.0,3.0,55,0.00,,,0.00,weatherlink.com 1.10,2013-03-22 23:08:00,
2013-03-22 19:23:00,41.8,27.0,30.37,NNE,33,0.0,3.0,56,0.00,,,0.00,weatherlink.com 1.10,2013-03-22 23:23:00,
2013-03-22 19:38:00,41.8,27.0,30.38,NE,34,0.0,0.0,56,0.00,,,0.00,weatherlink.com 1.10,2013-03-22 23:38:00,
2013-03-22 19:53:00,41.6,27.0,30.38,NNE,32,1.0,1.0,57,0.00,,,0.00,weatherlink.com 1.10,2013-03-22 23:53:00,
2013-03-22 20:08:00,41.3,27.0,30.38,NNW,335,0.0,0.0,58,0.00,,,0.00,weatherlink.com 1.10,2013-03-23 00:08:00,
2013-03-22 20:23:00,41.1,27.0,30.38,NNW,337,0.0,1.0,58,0.00,,,0.00,weatherlink.com 1.10,2013-03-23 00:23:00,
2013-03-22 20:38:00,40.9,27.0,30.38,NNW,337,0.0,0.0,59,0.00,,,0.00,weatherlink.com 1.10,2013-03-23 00:38:00,
2013-03-22 20:53:00,41.0,28.0,30.38,NNW,338,0.0,0.0,60,0.00,,,0.00,weatherlink.com 1.10,2013-03-23 00:53:00,
2013-03-22 21:08:00,40.9,29.0,30.39,NNW,338,0.0,1.0,62,0.00,,,0.00,weatherlink.com 1.10,2013-03-23 01:08:00,
2013-03-22 21:23:00,41.0,30.0,30.39,NNW,337,0.0,1.0,64,0.00,,,0.00,weatherlink.com 1.10,2013-03-23 01:23:00,
2013-03-22 21:38:00,41.2,30.0,30.39,NNE,25,0.0,0.0,65,0.00,,,0.00,weatherlink.com 1.10,2013-03-23 01:38:00,
2013-03-22 21:53:00,41.2,30.0,30.39,NNE,25,0.0,0.0,65,0.00,,,0.00,weatherlink.com 1.10,2013-03-23 01:53:00,
2013-03-22 22:08:00,41.1,32.0,30.39,NNE,25,0.0,0.0,70,0.00,,,0.00,weatherlink.com 1.10,2013-03-23 02:08:00,
2013-03-22 22:23:00,40.9,31.0,30.39,NE,40,0.0,0.0,69,0.00,,,0.00,weatherlink.com 1.10,2013-03-23 02:23:00,
2013-03-22 22:38:00,40.7,31.0,30.39,NE,40,0.0,0.0,68,0.00,,,0.00,weatherlink.com 1.10,2013-03-23 02:38:00,
2013-03-22 22:53:00,40.4,31.0,30.40,SW,235,0.0,0.0,69,0.00,,,0.00,weatherlink.com 1.10,2013-03-23 02:53:00,
2013-03-22 23:08:00,40.6,32.0,30.39,SW,236,0.0,0.0,70,0.00,,,0.00,weatherlink.com 1.10,2013-03-23 03:08:00,
2013-03-22 23:23:00,40.6,32.0,30.39,SW,236,0.0,0.0,70,0.00,,,0.00,weatherlink.com 1.10,2013-03-23 03:23:00,
2013-03-22 23:38:00,40.7,31.0,30.40,WSW,237,0.0,0.0,69,0.00,,,0.00,weatherlink.com 1.10,2013-03-23 03:38:00,
2013-03-22 23:53:00,40.6,31.0,30.40,WSW,246,0.0,1.0,69,0.00,,,0.00,weatherlink.com 1.10,2013-03-23 03:53:00,